Cayman Brac, Cayman Islands

3:22 PM EST on July 07, 2015 (GMT -0500)
Gerrard-Smith International | | Change Station
CLOSE
Current Station
Airport
Location: Cayman Brac,
Elevation: 7 ft
Nearby Weather Stations

Elev 7 ft 19.69 °N, 79.88 °W | Updated 22 minutes ago

Partly Cloudy
Partly Cloudy
88 °F
Feels Like 100 °F
N
14
Wind Variable Wind from East

Today
High -- | Low -- °F
--% Chance of Precip.
Yesterday
High -- | Low -- °F
Precip. -- in
5:46 AM 7:02 PM
Waning Gibbous, 61% visible
Pressure 30.01 in
Visibility 6.2 miles
Clouds Few 1800 ft
Heat Index 100 °F
Dew Point 77 °F
Humidity 70%
Rainfall 0.00 in
Snow Depth Not available.
UV 11 out of 12
Pollen Not available.
Air Quality Not available.
Flu Activity Not available.
METAR MWCB 072000Z 10012KT 9999 FEW018TCU 31/25 Q1016

More Conditions Fewer Conditions

Pressure 30.01 in
Visibility 6.2 miles
Clouds Few 1800 ft
Heat Index 100 °F
Dew Point 77 °F
Humidity 70%
Rainfall 0.00 in
Snow Depth Not available.
UV 11 out of 12
Pollen Not available.
Air Quality Not available.
Flu Activity Not available.
METAR MWCB 072000Z 10012KT 9999 FEW018TCU 31/25 Q1016

More Conditions Fewer Conditions

10-Day Weather Forecast

×

Almanac

Astronomy

Jul. 07, 2015 Rise Set
Actual Time
Civil Twilight
Nautical Twilight
Astronomical Twilight
Moon
Length of Visible Light
Length of Day
Tomorrow will be .
, % of the Moon is Illuminated

Today's Extremes

Country Highs Country Lows

Community

WunderPhotos

Upload Photos

1,835,890 photos uploaded!

WunderBlogs® & News

Nearby

Air Quality

  Air Quality AQ Index Pollutant
Not available.

Snow Depth

Station Depth Elevation

Earthquake Activity

City Distance Mag. Time & Date
Minimum magnitude displayed is 2.5.

Coastal Water Temperatures

Place Temperature

Stations

Nearby Weather Stations

Station Location Temp. Windchill Dew Point Humidity Wind Precip. Elev Updated Type